Time;durP1;ratioP1;P1;durP2;ratioP2;P2;SDS_P1;SDS_P2;PMS_P1;PMS_P2;Temp;Humidity;BMP_temperature;BMP_pressure;BME280_temperature;BME280_humidity;BME280_pressure;Samples;Min_cycle;Max_cycle;Signal;HPM_P1;HPM_P2
2021/06/24 00:00:49;;;;;;;9.80;8.50;;;;;;;;;;3596743;39;20406;-74
2021/06/24 00:03:15;;;;;;;10.37;9.37;;;;;;;;;;3598634;39;20400;-73
2021/06/24 00:05:42;;;;;;;12.73;9.50;;;;;;;;;;3599906;39;20842;-74
2021/06/24 00:08:09;;;;;;;21.77;9.60;;;;;;;;;;3599458;39;20703;-74
2021/06/24 00:10:36;;;;;;;10.27;9.20;;;;;;;;;;3597997;39;20443;-74
2021/06/24 00:13:03;;;;;;;11.90;10.30;;;;;;;;;;3599848;39;20415;-74
2021/06/24 00:15:29;;;;;;;13.10;10.20;;;;;;;;;;3599444;39;20458;-73
2021/06/24 00:17:55;;;;;;;15.37;9.93;;;;;;;;;;3581449;39;20854;-73
2021/06/24 00:20:22;;;;;;;16.07;9.57;;;;;;;;;;3588699;39;20402;-74
2021/06/24 00:22:48;;;;;;;12.00;9.37;;;;;;;;;;3589481;39;20415;-73
2021/06/24 00:25:14;;;;;;;15.13;10.87;;;;;;;;;;3589488;39;20401;-73
2021/06/24 00:27:41;;;;;;;11.60;10.50;;;;;;;;;;3588957;39;20843;-74
2021/06/24 00:30:07;;;;;;;11.93;10.93;;;;;;;;;;3581739;39;20416;-74
2021/06/24 00:32:34;;;;;;;10.23;9.33;;;;;;;;;;3598895;39;20403;-74
2021/06/24 00:35:01;;;;;;;11.43;10.27;;;;;;;;;;3599060;39;20403;-73
2021/06/24 00:37:27;;;;;;;13.60;9.93;;;;;;;;;;3588950;39;20398;-73
2021/06/24 00:39:53;;;;;;;11.40;8.87;;;;;;;;;;3589899;39;20488;-73
2021/06/24 00:42:20;;;;;;;10.70;9.70;;;;;;;;;;3588716;39;20409;-73
2021/06/24 00:44:46;;;;;;;11.00;9.90;;;;;;;;;;3599202;39;20767;-73
2021/06/24 00:47:13;;;;;;;10.57;9.53;;;;;;;;;;3589981;39;20451;-73
2021/06/24 00:49:39;;;;;;;9.83;8.83;;;;;;;;;;3598894;39;20418;-73
2021/06/24 00:52:05;;;;;;;10.50;9.40;;;;;;;;;;3589021;39;20876;-74
2021/06/24 00:54:31;;;;;;;14.87;9.07;;;;;;;;;;3598930;39;20430;-74
2021/06/24 00:56:58;;;;;;;10.27;8.33;;;;;;;;;;3580390;39;20793;-73
2021/06/24 00:59:24;;;;;;;12.70;9.70;;;;;;;;;;3589358;39;20399;-74
2021/06/24 01:04:21;;;;;;;11.27;9.80;;;;;;;;;;3647897;22;20463;-74
2021/06/24 01:06:48;;;;;;;10.90;9.53;;;;;;;;;;3589520;39;20444;-74
2021/06/24 01:09:14;;;;;;;22.50;10.07;;;;;;;;;;3596918;39;20416;-74
2021/06/24 01:11:41;;;;;;;12.03;10.27;;;;;;;;;;3589054;39;20417;-74
2021/06/24 01:14:08;;;;;;;14.03;9.93;;;;;;;;;;3589870;39;20399;-74
2021/06/24 01:16:34;;;;;;;13.83;9.70;;;;;;;;;;3599490;39;20455;-74
2021/06/24 01:19:01;;;;;;;14.63;10.00;;;;;;;;;;3599233;39;20855;-74
2021/06/24 01:21:27;;;;;;;12.97;9.10;;;;;;;;;;3599575;39;20383;-74
2021/06/24 01:23:53;;;;;;;10.00;9.00;;;;;;;;;;3600613;39;20378;-74
2021/06/24 01:26:21;;;;;;;10.70;9.70;;;;;;;;;;3589685;39;20390;-74
2021/06/24 01:28:47;;;;;;;11.53;10.53;;;;;;;;;;3598969;39;20406;-74
2021/06/24 01:31:14;;;;;;;15.20;11.97;;;;;;;;;;3589259;39;20464;-74
2021/06/24 01:33:40;;;;;;;16.47;12.07;;;;;;;;;;3589834;39;20369;-73
2021/06/24 01:36:07;;;;;;;14.40;10.30;;;;;;;;;;3590231;39;20489;-73
2021/06/24 01:38:33;;;;;;;13.77;12.20;;;;;;;;;;3599856;39;20408;-74
2021/06/24 01:40:59;;;;;;;16.60;12.43;;;;;;;;;;3588737;39;20450;-74
2021/06/24 01:43:25;;;;;;;13.60;11.53;;;;;;;;;;3589962;39;20408;-74
2021/06/24 01:45:53;;;;;;;13.17;11.47;;;;;;;;;;3599639;39;21179;-74
2021/06/24 01:48:20;;;;;;;13.13;11.60;;;;;;;;;;3599338;39;20370;-74
2021/06/24 01:50:46;;;;;;;14.83;11.60;;;;;;;;;;3599833;39;20453;-74
2021/06/24 01:53:12;;;;;;;14.17;12.13;;;;;;;;;;3599467;39;20406;-74
2021/06/24 01:55:40;;;;;;;16.37;12.23;;;;;;;;;;3599473;39;20391;-74
2021/06/24 01:58:07;;;;;;;19.70;16.00;;;;;;;;;;3598802;39;20401;-74
2021/06/24 02:00:33;;;;;;;13.93;11.17;;;;;;;;;;3598949;39;20454;-74
2021/06/24 02:02:59;;;;;;;14.10;12.10;;;;;;;;;;3599647;39;21216;-74
2021/06/24 02:05:25;;;;;;;17.77;13.00;;;;;;;;;;3598971;39;20358;-74
2021/06/24 02:07:51;;;;;;;13.97;12.50;;;;;;;;;;3599125;39;20399;-74
2021/06/24 02:10:18;;;;;;;21.23;12.30;;;;;;;;;;3597798;39;20382;-74
2021/06/24 02:12:44;;;;;;;15.13;13.00;;;;;;;;;;3599706;39;20394;-74
2021/06/24 02:15:11;;;;;;;15.03;12.50;;;;;;;;;;3589821;39;20396;-74
2021/06/24 02:17:38;;;;;;;21.03;13.10;;;;;;;;;;3588739;39;20423;-74
2021/06/24 02:20:05;;;;;;;17.03;13.03;;;;;;;;;;3588534;39;20396;-74
2021/06/24 02:22:31;;;;;;;19.27;13.57;;;;;;;;;;3595650;39;20458;-74
2021/06/24 02:24:57;;;;;;;14.83;12.73;;;;;;;;;;3597609;39;20388;-74
2021/06/24 02:27:23;;;;;;;14.13;12.63;;;;;;;;;;3597803;39;20433;-74
2021/06/24 02:29:49;;;;;;;22.23;15.10;;;;;;;;;;3596046;39;20743;-74
2021/06/24 02:32:15;;;;;;;16.00;14.20;;;;;;;;;;3588984;39;20427;-74
2021/06/24 02:34:42;;;;;;;16.13;12.83;;;;;;;;;;3590449;39;20899;-74
2021/06/24 02:37:08;;;;;;;14.70;13.30;;;;;;;;;;3597426;39;20408;-74
2021/06/24 02:39:34;;;;;;;13.90;12.57;;;;;;;;;;3598452;39;20443;-75
2021/06/24 02:42:00;;;;;;;15.77;13.30;;;;;;;;;;3599670;39;20697;-74
2021/06/24 02:44:27;;;;;;;19.27;13.43;;;;;;;;;;3598579;39;20667;-74
2021/06/24 02:46:53;;;;;;;18.47;13.33;;;;;;;;;;3588988;39;20446;-74
2021/06/24 02:49:19;;;;;;;17.63;13.77;;;;;;;;;;3589211;39;20422;-75
2021/06/24 02:51:48;;;;;;;15.10;13.60;;;;;;;;;;3588507;39;20430;-75
2021/06/24 02:54:14;;;;;;;18.30;13.30;;;;;;;;;;3596077;39;20823;-75
2021/06/24 02:56:41;;;;;;;16.60;12.80;;;;;;;;;;3598266;39;20799;-74
2021/06/24 02:59:07;;;;;;;21.07;13.80;;;;;;;;;;3588171;39;20702;-74
2021/06/24 03:01:33;;;;;;;18.47;13.77;;;;;;;;;;3580116;39;20440;-74
2021/06/24 03:03:59;;;;;;;19.10;13.50;;;;;;;;;;3580382;39;20547;-74
2021/06/24 03:06:25;;;;;;;20.77;14.90;;;;;;;;;;3588752;39;20395;-74
2021/06/24 03:08:51;;;;;;;23.73;13.53;;;;;;;;;;3588687;39;20442;-74
2021/06/24 03:11:18;;;;;;;18.20;12.67;;;;;;;;;;3598393;39;20410;-74
2021/06/24 03:13:46;;;;;;;20.37;13.47;;;;;;;;;;3598520;39;20362;-74
2021/06/24 03:16:12;;;;;;;20.80;13.73;;;;;;;;;;3589454;39;20847;-74
2021/06/24 03:18:38;;;;;;;15.70;14.10;;;;;;;;;;3596515;39;20407;-74
2021/06/24 03:21:04;;;;;;;16.40;13.63;;;;;;;;;;3598656;39;20423;-74
2021/06/24 03:23:30;;;;;;;23.17;14.70;;;;;;;;;;3598831;39;20456;-74
2021/06/24 03:25:56;;;;;;;22.20;14.20;;;;;;;;;;3588253;39;20403;-74
2021/06/24 03:28:23;;;;;;;18.50;14.00;;;;;;;;;;3597709;39;20431;-74
2021/06/24 03:30:49;;;;;;;19.30;14.80;;;;;;;;;;3598807;39;20412;-74
2021/06/24 03:33:15;;;;;;;19.57;15.50;;;;;;;;;;3598643;39;20383;-74
2021/06/24 03:35:44;;;;;;;24.23;12.83;;;;;;;;;;3598164;39;20418;-74
2021/06/24 03:38:10;;;;;;;16.07;14.03;;;;;;;;;;3597153;39;20412;-74
2021/06/24 03:40:36;;;;;;;16.47;14.77;;;;;;;;;;3598602;39;20415;-74
2021/06/24 03:43:03;;;;;;;22.53;13.80;;;;;;;;;;3598481;39;20396;-74
2021/06/24 03:45:29;;;;;;;16.17;14.40;;;;;;;;;;3597656;39;20412;-74
2021/06/24 03:47:55;;;;;;;15.33;13.47;;;;;;;;;;3587873;39;20409;-74
2021/06/24 03:50:21;;;;;;;18.00;15.17;;;;;;;;;;3598185;39;20450;-75
2021/06/24 03:52:47;;;;;;;23.20;15.70;;;;;;;;;;3599095;39;20398;-75
2021/06/24 03:55:16;;;;;;;16.03;14.40;;;;;;;;;;3587436;39;20497;-74
2021/06/24 03:57:42;;;;;;;18.10;15.57;;;;;;;;;;3579262;39;20404;-74
2021/06/24 04:00:08;;;;;;;20.43;14.87;;;;;;;;;;3589124;39;20441;-74
2021/06/24 04:02:34;;;;;;;18.00;14.40;;;;;;;;;;3588485;39;21169;-74
2021/06/24 04:05:00;;;;;;;16.47;14.70;;;;;;;;;;3579745;39;20420;-74
2021/06/24 04:07:27;;;;;;;16.63;13.73;;;;;;;;;;3597763;39;20419;-74
2021/06/24 04:09:53;;;;;;;18.37;14.57;;;;;;;;;;3597927;39;20406;-74
2021/06/24 04:12:19;;;;;;;16.10;14.40;;;;;;;;;;3587404;39;20492;-74
2021/06/24 04:14:44;;;;;;;20.20;15.20;;;;;;;;;;3599481;39;21213;-74
2021/06/24 04:17:10;;;;;;;17.80;13.67;;;;;;;;;;3600090;39;20949;-74
2021/06/24 04:19:37;;;;;;;16.87;13.77;;;;;;;;;;3589315;39;20418;-74
2021/06/24 04:22:03;;;;;;;18.30;15.50;;;;;;;;;;3589294;39;20406;-75
2021/06/24 04:24:29;;;;;;;19.70;14.33;;;;;;;;;;3589865;39;20553;-75
2021/06/24 04:26:55;;;;;;;25.10;15.43;;;;;;;;;;3597835;39;20458;-74
2021/06/24 04:29:21;;;;;;;16.87;14.50;;;;;;;;;;3587800;39;20434;-74
2021/06/24 04:31:47;;;;;;;19.33;16.43;;;;;;;;;;3580722;39;20633;-74
2021/06/24 04:34:13;;;;;;;19.00;14.80;;;;;;;;;;3599680;39;20442;-74
2021/06/24 04:36:43;;;;;;;21.97;14.83;;;;;;;;;;3598176;39;20421;-74
2021/06/24 04:39:10;;;;;;;21.10;14.13;;;;;;;;;;3599527;39;20480;-74
2021/06/24 04:41:36;;;;;;;19.53;15.00;;;;;;;;;;3599909;39;20412;-74
2021/06/24 04:44:02;;;;;;;19.03;14.20;;;;;;;;;;3587083;39;20420;-74
2021/06/24 04:46:28;;;;;;;15.43;13.80;;;;;;;;;;3589458;39;20404;-74
2021/06/24 04:48:54;;;;;;;18.37;15.40;;;;;;;;;;3599084;39;20821;-74
2021/06/24 04:51:20;;;;;;;20.07;15.03;;;;;;;;;;3589674;39;20459;-74
2021/06/24 04:53:46;;;;;;;20.40;14.23;;;;;;;;;;3599072;39;20410;-75
2021/06/24 04:56:12;;;;;;;18.97;14.40;;;;;;;;;;3598748;39;20929;-74
2021/06/24 04:58:38;;;;;;;17.87;14.57;;;;;;;;;;3588201;39;20432;-74
2021/06/24 05:01:04;;;;;;;18.93;14.83;;;;;;;;;;3588682;39;20489;-74
2021/06/24 05:03:30;;;;;;;19.30;14.23;;;;;;;;;;3598990;39;20945;-74
2021/06/24 05:05:56;;;;;;;20.50;14.67;;;;;;;;;;3590170;39;20386;-74
2021/06/24 05:08:26;;;;;;;24.07;14.60;;;;;;;;;;3599787;39;20900;-74
2021/06/24 05:10:52;;;;;;;22.00;13.70;;;;;;;;;;3599156;39;20369;-74
2021/06/24 05:13:18;;;;;;;21.60;14.80;;;;;;;;;;3598640;39;20538;-74
2021/06/24 05:15:45;;;;;;;15.70;14.07;;;;;;;;;;3589702;39;20851;-74
2021/06/24 05:18:11;;;;;;;17.93;13.60;;;;;;;;;;3599501;39;20431;-74
2021/06/24 05:20:39;;;;;;;20.87;15.73;;;;;;;;;;3597269;39;20400;-75
2021/06/24 05:23:06;;;;;;;20.13;14.53;;;;;;;;;;3596725;39;20410;-74
2021/06/24 05:25:32;;;;;;;20.53;14.93;;;;;;;;;;3589248;39;20958;-75
2021/06/24 05:27:59;;;;;;;22.80;16.03;;;;;;;;;;3599787;39;20538;-79
2021/06/24 05:30:25;;;;;;;23.73;16.03;;;;;;;;;;3598116;39;20417;-78
2021/06/24 05:32:51;;;;;;;17.27;15.43;;;;;;;;;;3600278;39;20728;-76
2021/06/24 05:35:18;;;;;;;20.23;14.20;;;;;;;;;;3598616;39;20410;-75
2021/06/24 05:37:45;;;;;;;19.57;14.63;;;;;;;;;;3588186;39;21593;-75
2021/06/24 05:40:11;;;;;;;16.87;14.83;;;;;;;;;;3587612;39;20439;-75
2021/06/24 05:42:37;;;;;;;19.50;14.70;;;;;;;;;;3594774;39;20491;-75
2021/06/24 05:45:04;;;;;;;22.53;15.87;;;;;;;;;;3596518;39;21248;-75
2021/06/24 05:47:30;;;;;;;24.33;15.97;;;;;;;;;;3596909;39;20467;-75
2021/06/24 05:49:56;;;;;;;17.80;15.30;;;;;;;;;;3597153;39;20388;-75
2021/06/24 05:52:23;;;;;;;17.30;13.60;;;;;;;;;;3597298;39;20897;-75
2021/06/24 05:54:49;;;;;;;22.63;15.07;;;;;;;;;;3596992;39;20516;-75
2021/06/24 05:57:15;;;;;;;25.07;15.27;;;;;;;;;;3596739;39;20496;-75
2021/06/24 05:59:41;;;;;;;21.40;14.57;;;;;;;;;;3597064;39;21015;-75
2021/06/24 06:02:07;;;;;;;22.43;15.93;;;;;;;;;;3596681;39;20894;-74
2021/06/24 06:04:33;;;;;;;22.87;15.73;;;;;;;;;;3587147;39;20519;-75
2021/06/24 06:06:59;;;;;;;20.60;14.73;;;;;;;;;;3586523;39;20466;-75
2021/06/24 06:09:25;;;;;;;17.30;14.80;;;;;;;;;;3588696;39;20403;-76
2021/06/24 06:11:51;;;;;;;19.57;13.93;;;;;;;;;;3588489;39;20425;-78
2021/06/24 06:14:18;;;;;;;18.07;13.80;;;;;;;;;;3597516;39;20403;-75
2021/06/24 06:16:45;;;;;;;21.30;13.93;;;;;;;;;;3586371;39;21090;-75
2021/06/24 06:19:11;;;;;;;15.97;13.63;;;;;;;;;;3588110;39;20410;-75
2021/06/24 06:21:38;;;;;;;16.77;14.10;;;;;;;;;;3597423;39;20402;-74
2021/06/24 06:24:04;;;;;;;15.07;13.50;;;;;;;;;;3595605;39;20760;-74
2021/06/24 06:26:30;;;;;;;20.80;15.30;;;;;;;;;;3595516;39;20798;-74
2021/06/24 06:29:02;;;;;;;17.13;15.10;;;;;;;;;;3595903;39;20427;-74
2021/06/24 06:31:28;;;;;;;16.27;14.60;;;;;;;;;;3585645;39;20441;-74
2021/06/24 06:33:55;;;;;;;17.93;13.87;;;;;;;;;;3587381;39;20929;-74
2021/06/24 06:36:21;;;;;;;18.67;14.93;;;;;;;;;;3596295;39;20442;-75
2021/06/24 06:38:47;;;;;;;17.53;13.90;;;;;;;;;;3584798;39;20529;-74
2021/06/24 06:41:13;;;;;;;23.37;15.63;;;;;;;;;;3586003;39;20411;-74
2021/06/24 06:43:39;;;;;;;22.87;14.80;;;;;;;;;;3585834;39;20388;-75
2021/06/24 06:46:05;;;;;;;21.87;15.20;;;;;;;;;;3580161;39;20521;-75
2021/06/24 06:48:31;;;;;;;18.90;15.80;;;;;;;;;;3585290;39;20430;-75
2021/06/24 06:50:58;;;;;;;24.83;16.43;;;;;;;;;;3596306;39;20396;-75
2021/06/24 06:53:24;;;;;;;17.97;14.13;;;;;;;;;;3591744;39;20568;-74
2021/06/24 06:55:50;;;;;;;25.60;15.23;;;;;;;;;;3596608;39;20830;-74
2021/06/24 06:58:16;;;;;;;22.47;15.30;;;;;;;;;;3595897;39;20388;-75
2021/06/24 07:00:42;;;;;;;22.03;15.90;;;;;;;;;;3596750;39;20419;-75
2021/06/24 07:03:08;;;;;;;19.20;16.17;;;;;;;;;;3587320;39;20462;-75
2021/06/24 07:05:34;;;;;;;18.37;15.23;;;;;;;;;;3597562;39;20451;-75
2021/06/24 07:08:00;;;;;;;18.60;15.07;;;;;;;;;;3588057;39;20415;-75
2021/06/24 07:10:26;;;;;;;21.53;15.57;;;;;;;;;;3587727;39;20769;-75
2021/06/24 07:12:52;;;;;;;21.47;16.50;;;;;;;;;;3587526;39;20450;-75
2021/06/24 07:15:19;;;;;;;20.73;14.70;;;;;;;;;;3587990;39;20410;-75
2021/06/24 07:17:46;;;;;;;18.80;16.90;;;;;;;;;;3590081;39;20419;-75
2021/06/24 07:20:13;;;;;;;20.90;15.80;;;;;;;;;;3597695;39;20560;-75
2021/06/24 07:22:39;;;;;;;20.17;17.33;;;;;;;;;;3588844;39;20438;-74
2021/06/24 07:25:06;;;;;;;17.33;15.27;;;;;;;;;;3587604;39;20504;-74
2021/06/24 07:27:32;;;;;;;19.03;15.33;;;;;;;;;;3583595;39;20413;-75
2021/06/24 07:29:58;;;;;;;18.20;16.40;;;;;;;;;;3588470;39;20422;-75
2021/06/24 07:32:24;;;;;;;19.10;17.10;;;;;;;;;;3586891;39;20443;-74
2021/06/24 07:34:50;;;;;;;19.03;15.27;;;;;;;;;;3579098;39;20425;-74
2021/06/24 07:37:16;;;;;;;19.00;16.80;;;;;;;;;;3586749;39;20403;-74
2021/06/24 07:39:42;;;;;;;18.53;16.67;;;;;;;;;;3597249;39;20391;-74
2021/06/24 07:42:08;;;;;;;30.03;21.27;;;;;;;;;;3586922;39;20418;-75
2021/06/24 07:44:34;;;;;;;27.30;18.60;;;;;;;;;;3598171;39;20699;-75
2021/06/24 07:47:00;;;;;;;22.50;18.83;;;;;;;;;;3588452;39;20568;-75
2021/06/24 07:49:26;;;;;;;29.67;18.70;;;;;;;;;;3597319;39;20463;-75
2021/06/24 07:51:52;;;;;;;21.87;19.57;;;;;;;;;;3589891;39;20431;-74
2021/06/24 07:54:18;;;;;;;19.77;17.63;;;;;;;;;;3596972;39;20403;-74
2021/06/24 07:56:44;;;;;;;26.50;20.60;;;;;;;;;;3599534;39;20451;-75
2021/06/24 07:59:12;;;;;;;21.83;19.53;;;;;;;;;;3598829;39;21283;-75
2021/06/24 08:01:42;;;;;;;22.00;18.07;;;;;;;;;;3583122;39;20422;-75
2021/06/24 08:04:09;;;;;;;24.07;18.90;;;;;;;;;;3589192;39;20859;-75
2021/06/24 08:06:35;;;;;;;22.13;19.40;;;;;;;;;;3589376;39;20398;-75
2021/06/24 08:09:02;;;;;;;19.00;17.23;;;;;;;;;;3596476;39;20422;-75
2021/06/24 08:11:28;;;;;;;19.90;18.00;;;;;;;;;;3600213;39;20916;-75
2021/06/24 08:13:54;;;;;;;21.60;18.23;;;;;;;;;;3588451;39;20416;-75
2021/06/24 08:16:21;;;;;;;19.33;17.30;;;;;;;;;;3599503;39;20390;-75
2021/06/24 08:18:47;;;;;;;22.47;18.80;;;;;;;;;;3598465;39;20735;-75
2021/06/24 08:21:13;;;;;;;19.13;16.67;;;;;;;;;;3597230;39;20419;-75
2021/06/24 08:23:39;;;;;;;21.03;18.27;;;;;;;;;;3586366;39;21382;-75
2021/06/24 08:26:05;;;;;;;21.23;17.77;;;;;;;;;;3596389;39;20406;-75
2021/06/24 08:28:32;;;;;;;19.43;17.63;;;;;;;;;;3583357;39;20521;-75
2021/06/24 08:31:01;;;;;;;19.20;17.30;;;;;;;;;;3589180;39;20420;-74
2021/06/24 08:33:27;;;;;;;22.07;19.90;;;;;;;;;;3588269;39;20425;-74
2021/06/24 08:35:53;;;;;;;20.57;18.60;;;;;;;;;;3590291;39;20410;-73
2021/06/24 08:38:19;;;;;;;20.67;18.60;;;;;;;;;;3598255;39;20396;-74
2021/06/24 08:40:46;;;;;;;22.87;20.23;;;;;;;;;;3588844;39;20482;-75
2021/06/24 08:43:13;;;;;;;21.97;20.07;;;;;;;;;;3589063;39;20842;-75
2021/06/24 08:45:40;;;;;;;21.77;19.87;;;;;;;;;;3588939;39;20406;-75
2021/06/24 08:48:12;;;;;;;22.70;20.90;;;;;;;;;;3598609;39;20411;-75
2021/06/24 08:50:38;;;;;;;21.00;19.23;;;;;;;;;;3580328;39;20393;-75
2021/06/24 08:53:06;;;;;;;20.53;18.53;;;;;;;;;;3597041;39;20426;-75
2021/06/24 08:55:40;;;;;;;21.27;19.47;;;;;;;;;;3596873;39;20817;-75
2021/06/24 08:58:08;;;;;;;20.80;19.00;;;;;;;;;;3599615;39;20441;-75
2021/06/24 09:00:34;;;;;;;20.10;18.30;;;;;;;;;;3596732;39;20446;-75
2021/06/24 09:03:14;;;;;;;20.23;18.40;;;;;;;;;;3589348;39;20411;-75
2021/06/24 09:05:47;;;;;;;21.83;19.87;;;;;;;;;;3588653;39;20391;-75
2021/06/24 09:08:13;;;;;;;22.40;20.50;;;;;;;;;;3588207;39;20503;-75
2021/06/24 09:10:39;;;;;;;23.13;20.80;;;;;;;;;;3580698;39;20411;-75
2021/06/24 09:13:05;;;;;;;23.20;20.73;;;;;;;;;;3587424;39;20416;-75
2021/06/24 09:15:35;;;;;;;22.10;19.90;;;;;;;;;;3581232;39;20521;-75
2021/06/24 09:18:02;;;;;;;22.27;20.23;;;;;;;;;;3599418;39;20459;-74
2021/06/24 09:20:30;;;;;;;21.50;19.50;;;;;;;;;;3590012;39;20484;-74
2021/06/24 09:23:05;;;;;;;23.07;20.43;;;;;;;;;;3599273;39;20430;-74
2021/06/24 09:25:31;;;;;;;21.27;19.50;;;;;;;;;;3597063;39;20395;-74
2021/06/24 09:27:57;;;;;;;22.60;20.50;;;;;;;;;;3588908;39;20427;-73
2021/06/24 09:30:30;;;;;;;24.67;22.47;;;;;;;;;;3590986;39;20503;-73
2021/06/24 09:32:56;;;;;;;24.70;22.30;;;;;;;;;;3598988;39;20415;-73
2021/06/24 09:35:30;;;;;;;23.90;21.70;;;;;;;;;;3597327;39;20455;-74
2021/06/24 09:38:00;;;;;;;24.97;22.70;;;;;;;;;;3597181;39;20535;-74
2021/06/24 09:40:37;;;;;;;26.00;23.83;;;;;;;;;;3588065;39;20473;-73
2021/06/24 09:43:03;;;;;;;26.63;23.90;;;;;;;;;;3589851;39;20421;-73
2021/06/24 09:45:29;;;;;;;24.77;22.20;;;;;;;;;;3589619;39;20796;-74
2021/06/24 09:48:11;;;;;;;25.73;23.53;;;;;;;;;;3598749;39;20496;-74
2021/06/24 09:50:38;;;;;;;25.33;22.83;;;;;;;;;;3597723;39;20553;-74
2021/06/24 09:53:11;;;;;;;21.30;19.60;;;;;;;;;;3598286;39;20403;-74
2021/06/24 09:55:37;;;;;;;20.53;18.80;;;;;;;;;;3596238;39;20475;-74
2021/06/24 09:58:16;;;;;;;21.80;19.90;;;;;;;;;;3588737;39;20803;-74
2021/06/24 10:00:53;;;;;;;24.60;22.50;;;;;;;;;;3595906;39;20435;-74
2021/06/24 10:03:19;;;;;;;23.90;21.80;;;;;;;;;;3596729;39;20724;-74
2021/06/24 10:05:45;;;;;;;24.13;21.70;;;;;;;;;;3598054;39;20431;-74
2021/06/24 10:08:12;;;;;;;26.90;23.00;;;;;;;;;;3597157;39;20843;-74
2021/06/24 10:10:40;;;;;;;28.43;25.73;;;;;;;;;;3598590;39;20409;-74
2021/06/24 10:13:06;;;;;;;27.07;24.67;;;;;;;;;;3598089;39;20776;-74
2021/06/24 10:15:34;;;;;;;24.43;22.13;;;;;;;;;;3599369;39;20400;-74
2021/06/24 10:18:00;;;;;;;26.27;23.93;;;;;;;;;;3599896;39;20465;-74
2021/06/24 10:20:29;;;;;;;25.93;23.80;;;;;;;;;;3597793;39;20413;-74
2021/06/24 10:22:58;;;;;;;27.20;24.60;;;;;;;;;;3598289;39;20754;-74
2021/06/24 10:25:25;;;;;;;27.43;24.80;;;;;;;;;;3588143;39;20408;-74
2021/06/24 10:27:53;;;;;;;28.33;25.57;;;;;;;;;;3593887;39;20431;-74
2021/06/24 10:30:21;;;;;;;28.47;25.87;;;;;;;;;;3587196;39;20405;-74
2021/06/24 10:33:03;;;;;;;26.60;23.80;;;;;;;;;;3587061;39;20424;-74
2021/06/24 10:35:31;;;;;;;27.80;25.30;;;;;;;;;;3587368;39;20491;-74
2021/06/24 10:37:58;;;;;;;27.83;25.00;;;;;;;;;;3588699;39;20395;-74
2021/06/24 10:40:24;;;;;;;28.50;26.20;;;;;;;;;;3590037;39;20486;-74
2021/06/24 10:42:52;;;;;;;26.33;23.97;;;;;;;;;;3586811;39;20422;-75
2021/06/24 10:45:18;;;;;;;28.07;25.63;;;;;;;;;;3598615;39;20440;-74
2021/06/24 10:47:44;;;;;;;27.13;24.67;;;;;;;;;;3586388;39;20821;-74
2021/06/24 10:53:20;;;;;;;23.70;21.80;;;;;;;;;;3597364;39;20426;-73
2021/06/24 10:55:49;;;;;;;26.30;23.00;;;;;;;;;;3598288;39;20388;-74
2021/06/24 10:58:19;;;;;;;26.40;23.80;;;;;;;;;;3597243;39;20793;-75
2021/06/24 11:00:45;;;;;;;26.30;23.30;;;;;;;;;;3588665;39;20772;-74
2021/06/24 11:03:12;;;;;;;22.77;20.83;;;;;;;;;;3597180;39;20435;-74
2021/06/24 11:05:42;;;;;;;28.93;23.20;;;;;;;;;;3588215;39;20466;-74
2021/06/24 11:08:15;;;;;;;25.33;22.17;;;;;;;;;;3597820;39;20477;-74
2021/06/24 11:10:54;;;;;;;24.27;21.90;;;;;;;;;;3597240;39;20404;-74
2021/06/24 11:14:08;;;;;;;24.07;21.87;;;;;;;;;;3586501;39;20473;-74
2021/06/24 11:16:27;;;;;;;25.70;23.20;;;;;;;;;;3593591;39;20392;-74
2021/06/24 11:19:07;;;;;;;24.53;22.53;;;;;;;;;;3597609;39;20415;-74
2021/06/24 11:21:33;;;;;;;23.60;21.60;;;;;;;;;;3593738;39;20411;-74
2021/06/24 11:24:13;;;;;;;24.33;21.80;;;;;;;;;;3597145;39;20408;-74
2021/06/24 11:26:42;;;;;;;22.73;20.60;;;;;;;;;;3599204;39;20811;-74
2021/06/24 11:29:15;;;;;;;20.00;18.40;;;;;;;;;;3599733;39;20425;-74
2021/06/24 11:37:14;;;;;;;20.60;19.20;;;;;;;;;;3559250;40;20398;-74
2021/06/24 11:39:44;;;;;;;20.30;18.40;;;;;;;;;;3554474;40;20586;-73
2021/06/24 11:42:15;;;;;;;19.53;18.00;;;;;;;;;;3561389;40;20410;-73
2021/06/24 11:44:45;;;;;;;20.30;18.70;;;;;;;;;;3559939;40;20457;-74
2021/06/24 11:47:12;;;;;;;20.23;18.67;;;;;;;;;;3560371;40;20406;-74
2021/06/24 12:01:38;;;;;;;19.50;18.03;;;;;;;;;;3561108;40;20420;-74
2021/06/24 12:04:04;;;;;;;19.67;18.27;;;;;;;;;;3554121;40;20847;-74
2021/06/24 12:06:53;;;;;;;21.10;19.40;;;;;;;;;;3562158;40;20425;-74
2021/06/24 12:09:24;;;;;;;19.90;18.00;;;;;;;;;;3559382;40;20422;-74
2021/06/24 12:11:54;;;;;;;18.43;16.93;;;;;;;;;;3564689;39;20406;-74
2021/06/24 12:14:20;;;;;;;20.90;19.13;;;;;;;;;;3588311;39;20424;-74
2021/06/24 12:17:05;;;;;;;20.03;18.23;;;;;;;;;;3587908;39;21268;-74
2021/06/24 12:19:44;;;;;;;20.70;18.90;;;;;;;;;;3592965;39;20507;-74
2021/06/24 12:22:13;;;;;;;19.77;18.00;;;;;;;;;;3599693;39;20443;-74
2021/06/24 12:24:39;;;;;;;20.83;19.07;;;;;;;;;;3586645;39;20407;-74
2021/06/24 12:27:34;;;;;;;20.93;19.23;;;;;;;;;;3596328;39;20488;-74
2021/06/24 12:30:05;;;;;;;17.70;16.30;;;;;;;;;;3580951;39;21217;-74
2021/06/24 12:32:31;;;;;;;18.37;16.83;;;;;;;;;;3591043;39;20419;-74
2021/06/24 12:34:58;;;;;;;15.53;14.23;;;;;;;;;;3596549;39;20412;-74
2021/06/24 12:37:43;;;;;;;18.43;14.30;;;;;;;;;;3587917;39;20488;-73
2021/06/24 12:40:16;;;;;;;19.13;15.33;;;;;;;;;;3588253;39;20415;-73
2021/06/24 12:42:43;;;;;;;17.80;16.30;;;;;;;;;;3588250;39;20439;-73
2021/06/24 12:45:09;;;;;;;17.60;16.00;;;;;;;;;;3598277;39;20399;-73
2021/06/24 12:47:38;;;;;;;16.80;15.30;;;;;;;;;;3594995;39;20937;-74
2021/06/24 12:50:21;;;;;;;14.33;13.13;;;;;;;;;;3580458;39;20393;-74
2021/06/24 12:52:50;;;;;;;14.93;13.43;;;;;;;;;;3599292;39;20415;-74
2021/06/24 12:55:38;;;;;;;14.03;12.93;;;;;;;;;;3589031;39;20415;-74
2021/06/24 12:58:05;;;;;;;13.17;12.03;;;;;;;;;;3590303;39;20567;-74
2021/06/24 13:00:32;;;;;;;11.70;10.70;;;;;;;;;;3595056;39;20376;-74
2021/06/24 13:02:58;;;;;;;11.53;10.60;;;;;;;;;;3598945;39;20483;-74
2021/06/24 13:05:24;;;;;;;11.90;11.03;;;;;;;;;;3595126;39;20895;-74
2021/06/24 13:08:02;;;;;;;10.83;10.10;;;;;;;;;;3588018;39;20417;-74
2021/06/24 13:10:29;;;;;;;15.17;13.87;;;;;;;;;;3587173;39;20735;-74
2021/06/24 13:12:55;;;;;;;17.30;15.70;;;;;;;;;;3588596;39;20419;-74
2021/06/24 13:15:31;;;;;;;14.57;12.50;;;;;;;;;;3598121;39;20425;-74
2021/06/24 13:17:57;;;;;;;14.80;13.70;;;;;;;;;;3597281;39;20458;-73
2021/06/24 13:20:23;;;;;;;14.17;12.97;;;;;;;;;;3588347;39;20395;-73
2021/06/24 13:22:49;;;;;;;15.87;14.57;;;;;;;;;;3588317;39;21228;-73
2021/06/24 13:25:20;;;;;;;14.93;13.73;;;;;;;;;;3586321;39;20414;-73
2021/06/24 13:27:46;;;;;;;14.70;13.70;;;;;;;;;;3587062;39;20915;-73
2021/06/24 13:30:13;;;;;;;15.10;13.90;;;;;;;;;;3587025;39;20801;-73
2021/06/24 13:32:41;;;;;;;12.80;11.90;;;;;;;;;;3598128;39;20855;-74
2021/06/24 13:35:14;;;;;;;10.53;9.83;;;;;;;;;;3596953;39;20444;-74
2021/06/24 13:37:51;;;;;;;11.00;9.97;;;;;;;;;;3586340;39;20781;-74
2021/06/24 13:40:18;;;;;;;13.13;12.10;;;;;;;;;;3594940;39;20394;-74
2021/06/24 13:42:51;;;;;;;11.80;10.90;;;;;;;;;;3579084;39;20590;-74
2021/06/24 13:45:17;;;;;;;16.63;15.17;;;;;;;;;;3597220;39;20422;-73
2021/06/24 13:47:43;;;;;;;16.70;15.10;;;;;;;;;;3597465;39;20499;-73
2021/06/24 13:50:09;;;;;;;18.37;16.47;;;;;;;;;;3588905;39;20410;-73
2021/06/24 13:52:35;;;;;;;17.53;15.87;;;;;;;;;;3599299;39;20494;-73
2021/06/24 13:55:02;;;;;;;17.13;15.33;;;;;;;;;;3589303;39;20412;-74
2021/06/24 13:57:28;;;;;;;20.83;15.10;;;;;;;;;;3598766;39;20438;-74
2021/06/24 13:59:54;;;;;;;16.80;15.30;;;;;;;;;;3597687;39;20429;-74
2021/06/24 14:02:20;;;;;;;14.40;13.20;;;;;;;;;;3586513;39;20426;-74
2021/06/24 14:04:46;;;;;;;17.70;14.70;;;;;;;;;;3588240;39;20475;-74
2021/06/24 14:07:12;;;;;;;20.80;15.27;;;;;;;;;;3599067;39;20411;-73
2021/06/24 14:09:38;;;;;;;12.50;11.40;;;;;;;;;;3587469;39;20795;-74
2021/06/24 14:12:04;;;;;;;11.40;9.43;;;;;;;;;;3598971;39;20509;-73
2021/06/24 14:14:31;;;;;;;12.50;11.20;;;;;;;;;;3598318;39;20435;-73
2021/06/24 14:16:57;;;;;;;13.50;12.20;;;;;;;;;;3589487;39;20415;-74
2021/06/24 14:19:28;;;;;;;13.43;12.33;;;;;;;;;;3598712;39;20735;-74
2021/06/24 14:21:58;;;;;;;14.20;12.83;;;;;;;;;;3590168;39;20507;-74
2021/06/24 14:24:24;;;;;;;13.67;12.47;;;;;;;;;;3597745;39;20463;-74
2021/06/24 14:26:50;;;;;;;13.10;12.10;;;;;;;;;;3598651;39;20491;-73
2021/06/24 14:29:16;;;;;;;13.40;12.20;;;;;;;;;;3591372;39;20419;-74
2021/06/24 14:31:43;;;;;;;14.27;12.87;;;;;;;;;;3588787;39;20430;-73
2021/06/24 14:34:09;;;;;;;13.93;12.70;;;;;;;;;;3588151;39;20824;-74
2021/06/24 14:36:35;;;;;;;14.10;12.70;;;;;;;;;;3596265;39;20511;-73
2021/06/24 14:39:01;;;;;;;12.40;11.30;;;;;;;;;;3587744;39;20646;-73
2021/06/24 14:41:27;;;;;;;15.90;12.10;;;;;;;;;;3596693;39;20415;-74
2021/06/24 14:43:54;;;;;;;12.90;11.87;;;;;;;;;;3596262;39;20423;-74